Wetterdaten: Woche 02.06.14 - 08.06.14 (KW23)
Datum Zeit Temp. A. Feuchte A. Luftdruck Regen Wind Richtung Sonnenschein ET UV Solar Taupunkt Windchill Windben
02.06.2014 00:00 7,4 C 90 % 1019,5 hPa 0,0 l/m 0,3 km/h (0 Bft) N 0,00 h 0,000 mm 0,0 UV-I 0 W/m 5,9 C 7,4 C 0,6 km/h (0 Bft)
02.06.2014 01:00 6,7 C 92 % 1019,6 hPa 0,0 l/m 0,1 km/h (0 Bft) NO 0,00 h 0,000 mm 0,0 UV-I 0 W/m 5,4 C 6,7 C 0,6 km/h (0 Bft)
02.06.2014 02:00 6,0 C 93 % 1019,5 hPa 0,0 l/m 0,1 km/h (0 Bft) N 0,00 h 0,000 mm 0,0 UV-I 0 W/m 4,9 C 6,0 C 0,2 km/h (0 Bft)
02.06.2014 03:00 5,4 C 94 % 1019,5 hPa 0,0 l/m 0,0 km/h (0 Bft) N 0,00 h 0,000 mm 0,0 UV-I 0 W/m 4,4 C 5,4 C 0,1 km/h (0 Bft)
02.06.2014 04:00 5,2 C 94 % 1019,4 hPa 0,0 l/m 0,0 km/h (0 Bft) N 0,00 h 0,000 mm 0,0 UV-I 0 W/m 4,4 C 5,2 C 0,1 km/h (0 Bft)
02.06.2014 05:00 5,5 C 94 % 1019,2 hPa 0,0 l/m 0,1 km/h (0 Bft) N 0,00 h 0,000 mm 0,0 UV-I 10 W/m 4,6 C 5,5 C 0,5 km/h (0 Bft)
02.06.2014 06:00 5,9 C 94 % 1019,3 hPa 0,0 l/m 0,1 km/h (0 Bft) N 0,00 h 0,000 mm 0,0 UV-I 33 W/m 4,9 C 5,9 C 0,5 km/h (0 Bft)
02.06.2014 07:00 8,7 C 89 % 1019,2 hPa 0,0 l/m 0,2 km/h (0 Bft) O-NO 0,83 h 0,025 mm 0,8 UV-I 189 W/m 6,9 C 8,7 C 0,8 km/h (0 Bft)
02.06.2014 08:00 12,6 C 72 % 1018,9 hPa 0,0 l/m 1,2 km/h (1 Bft) SO 1,00 h 0,076 mm 1,5 UV-I 305 W/m 7,8 C 12,6 C 2,7 km/h (1 Bft)
02.06.2014 09:00 15,3 C 61 % 1018,5 hPa 0,0 l/m 2,6 km/h (1 Bft) SO 1,00 h 0,178 mm 2,9 UV-I 600 W/m 7,8 C 15,3 C 4,9 km/h (1 Bft)
02.06.2014 10:00 16,3 C 55 % 1018,2 hPa 0,0 l/m 3,4 km/h (1 Bft) N 1,00 h 0,330 mm 2,9 UV-I 478 W/m 7,1 C 16,3 C 5,6 km/h (1 Bft)
02.06.2014 11:00 16,9 C 53 % 1018,0 hPa 0,0 l/m 3,0 km/h (1 Bft) N-NW 1,00 h 0,279 mm 4,2 UV-I 529 W/m 7,1 C 16,8 C 5,3 km/h (1 Bft)
02.06.2014 12:00 17,0 C 49 % 1017,7 hPa 0,0 l/m 3,4 km/h (1 Bft) N-NO 1,00 h 0,305 mm 2,8 UV-I 298 W/m 6,3 C 17,0 C 5,8 km/h (2 Bft)
02.06.2014 13:00 17,6 C 49 % 1017,5 hPa 0,0 l/m 6,1 km/h (2 Bft) N 1,00 h 0,203 mm 3,8 UV-I 418 W/m 6,8 C 17,2 C 9,7 km/h (2 Bft)
02.06.2014 14:00 17,7 C 51 % 1017,1 hPa 0,0 l/m 7,6 km/h (2 Bft) N 1,00 h 0,280 mm 3,3 UV-I 401 W/m 7,5 C 16,8 C 11,4 km/h (2 Bft)
02.06.2014 15:00 18,5 C 48 % 1016,7 hPa 0,0 l/m 3,9 km/h (1 Bft) N 1,00 h 0,279 mm 3,8 UV-I 530 W/m 7,4 C 18,4 C 7,1 km/h (2 Bft)
02.06.2014 16:00 19,3 C 43 % 1016,4 hPa 0,0 l/m 6,7 km/h (2 Bft) N 1,00 h 0,356 mm 3,2 UV-I 583 W/m 6,4 C 18,7 C 10,3 km/h (2 Bft)
02.06.2014 17:00 19,0 C 43 % 1016,1 hPa 0,0 l/m 6,5 km/h (2 Bft) N 1,00 h 0,406 mm 2,0 UV-I 389 W/m 6,2 C 18,6 C 10,5 km/h (2 Bft)
02.06.2014 18:00 17,9 C 49 % 1016,1 hPa 0,0 l/m 9,5 km/h (2 Bft) N-NW 1,00 h 0,254 mm 0,9 UV-I 134 W/m 6,9 C 16,5 C 14,3 km/h (3 Bft)
02.06.2014 19:00 16,3 C 55 % 1016,0 hPa 0,0 l/m 6,0 km/h (2 Bft) N 1,00 h 0,152 mm 0,5 UV-I 69 W/m 7,3 C 16,0 C 9,3 km/h (2 Bft)
02.06.2014 20:00 15,5 C 59 % 1016,1 hPa 0,0 l/m 3,3 km/h (1 Bft) N-NO 0,08 h 0,076 mm 0,0 UV-I 29 W/m 7,5 C 15,5 C 5,6 km/h (1 Bft)
02.06.2014 21:00 14,1 C 65 % 1016,4 hPa 0,0 l/m 1,4 km/h (1 Bft) N-NO 0,00 h 0,051 mm 0,0 UV-I 5 W/m 7,6 C 14,1 C 3,4 km/h (1 Bft)
02.06.2014 22:00 13,0 C 73 % 1016,7 hPa 0,0 l/m 0,3 km/h (0 Bft) NO 0,00 h 0,027 mm 0,0 UV-I 0 W/m 8,3 C 13,0 C 1,1 km/h (0 Bft)
02.06.2014 23:00 12,4 C 79 % 1016,8 hPa 0,0 l/m 0,4 km/h (0 Bft) O 0,00 h 0,025 mm 0,0 UV-I 0 W/m 8,8 C 12,4 C 1,3 km/h (1 Bft)
03.06.2014 00:00 11,7 C 82 % 1016,6 hPa 0,0 l/m 0,1 km/h (0 Bft) N 0,00 h 0,025 mm 0,0 UV-I 0 W/m 8,7 C 11,7 C 0,4 km/h (0 Bft)
03.06.2014 01:00 11,4 C 83 % 1016,3 hPa 0,0 l/m 0,0 km/h (0 Bft) N 0,00 h 0,025 mm 0,0 UV-I 0 W/m 8,7 C 11,4 C 0,4 km/h (0 Bft)
03.06.2014 02:00 11,1 C 86 % 1016,1 hPa 0,0 l/m 0,1 km/h (0 Bft) N 0,00 h 0,000 mm 0,0 UV-I 0 W/m 8,8 C 11,1 C 0,2 km/h (0 Bft)
03.06.2014 03:00 10,8 C 87 % 1015,7 hPa 0,0 l/m 0,1 km/h (0 Bft) N 0,00 h 0,000 mm 0,0 UV-I 0 W/m 8,6 C 10,8 C 0,5 km/h (0 Bft)
03.06.2014 04:00 10,4 C 88 % 1015,4 hPa 0,0 l/m 0,1 km/h (0 Bft) N 0,00 h 0,000 mm 0,0 UV-I 0 W/m 8,5 C 10,4 C 0,3 km/h (0 Bft)
03.06.2014 05:00 9,7 C 91 % 1015,3 hPa 0,0 l/m 0,0 km/h (0 Bft) N 0,00 h 0,000 mm 0,0 UV-I 11 W/m 8,4 C 9,7 C 0,2 km/h (0 Bft)
03.06.2014 06:00 9,5 C 89 % 1015,3 hPa 0,0 l/m 0,4 km/h (0 Bft) O-NO 0,03 h 0,000 mm 0,0 UV-I 23 W/m 7,8 C 9,5 C 1,4 km/h (1 Bft)
03.06.2014 07:00 10,7 C 85 % 1015,4 hPa 0,0 l/m 0,1 km/h (0 Bft) NW 1,00 h 0,000 mm 0,8 UV-I 218 W/m 8,2 C 10,7 C 0,6 km/h (0 Bft)
03.06.2014 08:00 14,0 C 72 % 1015,1 hPa 0,0 l/m 1,1 km/h (1 Bft) N-NW 1,00 h 0,102 mm 1,7 UV-I 421 W/m 9,0 C 14,0 C 2,6 km/h (1 Bft)
03.06.2014 09:00 16,4 C 59 % 1014,9 hPa 0,0 l/m 2,6 km/h (1 Bft) N 1,00 h 0,229 mm 3,0 UV-I 614 W/m 8,4 C 16,4 C 5,0 km/h (1 Bft)
03.06.2014 10:00 16,3 C 55 % 1014,6 hPa 0,0 l/m 5,6 km/h (1 Bft) W-NW 1,00 h 0,356 mm 2,1 UV-I 274 W/m 7,2 C 15,9 C 8,4 km/h (2 Bft)
03.06.2014 11:00 17,2 C 54 % 1014,5 hPa 0,0 l/m 4,8 km/h (1 Bft) SW 1,00 h 0,178 mm 3,9 UV-I 566 W/m 7,7 C 17,1 C 7,7 km/h (2 Bft)
03.06.2014 12:00 17,7 C 53 % 1014,3 hPa 0,0 l/m 4,5 km/h (1 Bft) N-NO 1,00 h 0,330 mm 3,8 UV-I 523 W/m 7,8 C 17,5 C 7,1 km/h (2 Bft)
03.06.2014 13:00 17,5 C 50 % 1014,0 hPa 0,0 l/m 5,0 km/h (1 Bft) W-NW 1,00 h 0,305 mm 3,1 UV-I 314 W/m 7,0 C 17,3 C 7,5 km/h (2 Bft)
03.06.2014 14:00 19,5 C 44 % 1013,5 hPa 0,0 l/m 4,1 km/h (1 Bft) W 1,00 h 0,229 mm 5,2 UV-I 727 W/m 6,9 C 19,4 C 7,1 km/h (2 Bft)
03.06.2014 15:00 19,7 C 41 % 1013,2 hPa 0,0 l/m 3,8 km/h (1 Bft) W-NW 1,00 h 0,457 mm 4,3 UV-I 601 W/m 5,9 C 19,6 C 6,4 km/h (2 Bft)
03.06.2014 16:00 20,7 C 38 % 1012,8 hPa 0,0 l/m 5,9 km/h (2 Bft) N-NO 1,00 h 0,381 mm 3,1 UV-I 607 W/m 5,9 C 20,3 C 9,6 km/h (2 Bft)
03.06.2014 17:00 19,5 C 40 % 1012,5 hPa 0,0 l/m 5,0 km/h (1 Bft) N-NO 1,00 h 0,406 mm 1,6 UV-I 239 W/m 5,6 C 19,4 C 8,3 km/h (2 Bft)
03.06.2014 18:00 18,9 C 42 % 1012,4 hPa 0,0 l/m 7,4 km/h (2 Bft) N-NO 1,00 h 0,203 mm 0,9 UV-I 92 W/m 5,6 C 18,2 C 11,4 km/h (2 Bft)
03.06.2014 19:00 17,9 C 44 % 1012,5 hPa 0,0 l/m 6,9 km/h (2 Bft) N-NO 0,85 h 0,127 mm 0,5 UV-I 60 W/m 5,4 C 17,4 C 10,2 km/h (2 Bft)
03.06.2014 20:00 16,5 C 52 % 1012,6 hPa 0,0 l/m 3,3 km/h (1 Bft) N-NO 0,00 h 0,102 mm 0,0 UV-I 24 W/m 6,6 C 16,4 C 5,7 km/h (1 Bft)
03.06.2014 21:00 15,3 C 60 % 1012,9 hPa 0,0 l/m 1,4 km/h (1 Bft) O-NO 0,00 h 0,051 mm 0,0 UV-I 5 W/m 7,6 C 15,3 C 3,5 km/h (1 Bft)
03.06.2014 22:00 14,1 C 67 % 1013,0 hPa 0,0 l/m 1,3 km/h (1 Bft) O-NO 0,00 h 0,000 mm 0,0 UV-I 0 W/m 8,1 C 14,1 C 3,2 km/h (1 Bft)
03.06.2014 23:00 12,9 C 71 % 1012,7 hPa 0,0 l/m 1,3 km/h (1 Bft) O-NO 0,00 h 0,025 mm 0,0 UV-I 0 W/m 7,8 C 12,9 C 3,1 km/h (1 Bft)
04.06.2014 00:00 12,0 C 74 % 1012,4 hPa 0,0 l/m 1,9 km/h (1 Bft) O-NO 0,00 h 0,025 mm 0,0 UV-I 0 W/m 7,5 C 12,0 C 3,6 km/h (1 Bft)
04.06.2014 01:00 11,3 C 76 % 1012,0 hPa 0,0 l/m 2,6 km/h (1 Bft) O-NO 0,00 h 0,025 mm 0,0 UV-I 0 W/m 7,3 C 11,3 C 4,7 km/h (1 Bft)
04.06.2014 02:00 9,9 C 84 % 1011,8 hPa 0,0 l/m 0,2 km/h (0 Bft) N-NW 0,00 h 0,025 mm 0,0 UV-I 0 W/m 7,3 C 9,9 C 0,7 km/h (0 Bft)
04.06.2014 03:00 9,5 C 87 % 1011,6 hPa 0,0 l/m 0,1 km/h (0 Bft) N-NO 0,00 h 0,000 mm 0,0 UV-I 0 W/m 7,4 C 9,5 C 0,5 km/h (0 Bft)
04.06.2014 04:00 9,0 C 89 % 1011,3 hPa 0,0 l/m 0,0 km/h (0 Bft) N 0,00 h 0,000 mm 0,0 UV-I 0 W/m 7,4 C 9,0 C 0,1 km/h (0 Bft)
04.06.2014 05:00 8,2 C 91 % 1011,1 hPa 0,0 l/m 0,0 km/h (0 Bft) N 0,00 h 0,000 mm 0,0 UV-I 13 W/m 6,9 C 8,2 C 0,2 km/h (0 Bft)
04.06.2014 06:00 8,6 C 91 % 1011,0 hPa 0,0 l/m 0,0 km/h (0 Bft) N 0,00 h 0,000 mm 0,0 UV-I 35 W/m 7,2 C 8,6 C 0,1 km/h (0 Bft)
04.06.2014 07:00 11,5 C 83 % 1010,8 hPa 0,0 l/m 0,1 km/h (0 Bft) S-SO 0,87 h 0,025 mm 0,9 UV-I 208 W/m 8,7 C 11,5 C 0,5 km/h (0 Bft)
04.06.2014 08:00 14,4 C 74 % 1010,5 hPa 0,0 l/m 2,4 km/h (1 Bft) W-SW 1,00 h 0,102 mm 1,7 UV-I 438 W/m 9,8 C 14,4 C 4,4 km/h (1 Bft)
04.06.2014 09:00 16,6 C 66 % 1010,1 hPa 0,0 l/m 4,7 km/h (1 Bft) W-SW 1,00 h 0,229 mm 2,9 UV-I 590 W/m 10,2 C 16,5 C 7,9 km/h (2 Bft)
04.06.2014 10:00 18,6 C 59 % 1009,5 hPa 0,0 l/m 4,4 km/h (1 Bft) W-NW 1,00 h 0,330 mm 4,3 UV-I 730 W/m 10,3 C 18,5 C 7,2 km/h (2 Bft)
04.06.2014 11:00 20,0 C 51 % 1009,0 hPa 0,0 l/m 6,4 km/h (2 Bft) W-SW 1,00 h 0,432 mm 5,3 UV-I 755 W/m 9,6 C 19,6 C 10,3 km/h (2 Bft)
04.06.2014 12:00 21,1 C 46 % 1008,6 hPa 0,0 l/m 8,0 km/h (2 Bft) SW 1,00 h 0,483 mm 6,5 UV-I 890 W/m 9,0 C 20,4 C 12,6 km/h (3 Bft)
04.06.2014 13:00 21,9 C 41 % 1008,1 hPa 0,0 l/m 8,6 km/h (2 Bft) S 1,00 h 0,584 mm 6,7 UV-I 903 W/m 8,1 C 21,0 C 13,5 km/h (3 Bft)
04.06.2014 14:00 22,0 C 39 % 1007,7 hPa 0,0 l/m 9,8 km/h (2 Bft) S 1,00 h 0,610 mm 5,0 UV-I 701 W/m 7,4 C 20,9 C 15,2 km/h (3 Bft)
04.06.2014 15:00 19,6 C 50 % 1007,6 hPa 0,0 l/m 6,7 km/h (2 Bft) W-SW 1,00 h 0,508 mm 1,5 UV-I 177 W/m 8,9 C 19,1 C 10,6 km/h (2 Bft)
04.06.2014 16:00 19,6 C 52 % 1007,3 hPa 0,0 l/m 2,3 km/h (1 Bft) W-NW 1,00 h 0,152 mm 1,7 UV-I 294 W/m 9,3 C 19,6 C 3,9 km/h (1 Bft)
04.06.2014 17:00 20,4 C 48 % 1006,8 hPa 0,0 l/m 2,5 km/h (1 Bft) O-NO 1,00 h 0,203 mm 1,8 UV-I 332 W/m 9,0 C 20,4 C 4,8 km/h (1 Bft)
04.06.2014 18:00 19,8 C 52 % 1006,5 hPa 0,0 l/m 3,5 km/h (1 Bft) O-NO 1,00 h 0,229 mm 0,9 UV-I 157 W/m 9,7 C 19,7 C 6,6 km/h (2 Bft)
04.06.2014 19:00 19,4 C 54 % 1006,6 hPa 0,0 l/m 3,5 km/h (1 Bft) SO 1,00 h 0,127 mm 0,6 UV-I 112 W/m 9,9 C 19,4 C 6,4 km/h (2 Bft)
04.06.2014 20:00 18,6 C 57 % 1006,9 hPa 0,0 l/m 4,7 km/h (1 Bft) SO 0,13 h 0,102 mm 0,0 UV-I 33 W/m 10,0 C 18,6 C 7,7 km/h (2 Bft)
04.06.2014 21:00 17,0 C 66 % 1007,6 hPa 0,0 l/m 9,3 km/h (2 Bft) W-SW 0,00 h 0,051 mm 0,0 UV-I 0 W/m 10,4 C 15,2 C 14,6 km/h (3 Bft)
04.06.2014 22:00 14,4 C 81 % 1008,7 hPa 0,0 l/m 5,5 km/h (1 Bft) W-SW 0,00 h 0,051 mm 0,0 UV-I 0 W/m 11,2 C 13,9 C 9,3 km/h (2 Bft)
04.06.2014 23:00 14,0 C 83 % 1009,1 hPa 0,0 l/m 3,8 km/h (1 Bft) SW 0,00 h 0,025 mm 0,0 UV-I 0 W/m 11,1 C 14,0 C 6,7 km/h (2 Bft)
05.06.2014 00:00 13,3 C 86 % 1009,2 hPa 0,0 l/m 4,1 km/h (1 Bft) S 0,00 h 0,025 mm 0,0 UV-I 0 W/m 11,0 C 13,3 C 7,0 km/h (2 Bft)
05.06.2014 01:00 13,0 C 89 % 1009,2 hPa 0,0 l/m 4,8 km/h (1 Bft) S 0,00 h 0,025 mm 0,0 UV-I 0 W/m 11,2 C 12,9 C 8,1 km/h (2 Bft)
05.06.2014 02:00 13,0 C 89 % 1009,6 hPa 0,0 l/m 5,3 km/h (1 Bft) SW 0,00 h 0,025 mm 0,0 UV-I 0 W/m 11,3 C 12,8 C 8,7 km/h (2 Bft)
05.06.2014 03:00 13,0 C 89 % 1009,8 hPa 0,0 l/m 6,4 km/h (2 Bft) S-SW 0,00 h 0,000 mm 0,0 UV-I 0 W/m 11,2 C 12,3 C 10,5 km/h (2 Bft)
05.06.2014 04:00 12,7 C 87 % 1010,3 hPa 0,0 l/m 8,7 km/h (2 Bft) W-SW 0,00 h 0,000 mm 0,0 UV-I 5 W/m 10,5 C 11,2 C 14,1 km/h (3 Bft)
05.06.2014 05:00 12,0 C 85 % 1010,9 hPa 0,0 l/m 10,0 km/h (2 Bft) W-SW 0,00 h 0,000 mm 0,0 UV-I 10 W/m 9,5 C 9,9 C 15,5 km/h (3 Bft)
05.06.2014 06:00 11,5 C 84 % 1011,7 hPa 0,0 l/m 9,2 km/h (2 Bft) W-SW 0,02 h 0,025 mm 0,0 UV-I 11 W/m 8,9 C 9,6 C 15,3 km/h (3 Bft)
05.06.2014 07:00 11,3 C 81 % 1012,3 hPa 0,0 l/m 11,5 km/h (2 Bft) W-SW 0,62 h 0,025 mm 0,8 UV-I 88 W/m 8,2 C 8,4 C 18,8 km/h (3 Bft)
05.06.2014 08:00 12,1 C 74 % 1012,8 hPa 0,0 l/m 12,3 km/h (3 Bft) W-SW 1,00 h 0,076 mm 1,5 UV-I 290 W/m 7,5 C 8,9 C 19,0 km/h (3 Bft)
05.06.2014 09:00 13,0 C 64 % 1013,3 hPa 0,0 l/m 14,7 km/h (3 Bft) W-SW 1,00 h 0,178 mm 2,5 UV-I 430 W/m 6,3 C 9,1 C 22,3 km/h (4 Bft)
05.06.2014 10:00 13,9 C 56 % 1014,0 hPa 0,0 l/m 14,6 km/h (3 Bft) W 1,00 h 0,279 mm 3,3 UV-I 519 W/m 5,2 C 10,1 C 21,8 km/h (4 Bft)
05.06.2014 11:00 15,2 C 51 % 1014,3 hPa 0,0 l/m 13,5 km/h (3 Bft) W-SW 1,00 h 0,330 mm 4,9 UV-I 697 W/m 5,2 C 12,0 C 20,3 km/h (4 Bft)
05.06.2014 12:00 16,3 C 49 % 1014,5 hPa 0,0 l/m 11,4 km/h (2 Bft) W-SW 1,00 h 0,432 mm 5,1 UV-I 672 W/m 5,5 C 14,1 C 17,5 km/h (3 Bft)
05.06.2014 13:00 16,2 C 49 % 1014,7 hPa 0,0 l/m 11,1 km/h (2 Bft) W 1,00 h 0,432 mm 4,2 UV-I 518 W/m 5,5 C 14,1 C 17,6 km/h (3 Bft)
05.06.2014 14:00 16,5 C 48 % 1014,8 hPa 0,0 l/m 10,8 km/h (2 Bft) W 1,00 h 0,356 mm 3,8 UV-I 458 W/m 5,4 C 14,5 C 16,2 km/h (3 Bft)
05.06.2014 15:00 16,5 C 48 % 1014,9 hPa 0,0 l/m 8,2 km/h (2 Bft) W-SW 1,00 h 0,330 mm 2,5 UV-I 349 W/m 5,3 C 15,5 C 13,1 km/h (3 Bft)
05.06.2014 16:00 16,6 C 49 % 1015,0 hPa 0,0 l/m 6,6 km/h (2 Bft) W-SW 1,00 h 0,254 mm 1,8 UV-I 287 W/m 6,0 C 16,2 C 11,3 km/h (2 Bft)
05.06.2014 17:00 16,8 C 50 % 1015,1 hPa 0,0 l/m 6,4 km/h (2 Bft) W-SW 1,00 h 0,203 mm 1,5 UV-I 270 W/m 6,2 C 16,3 C 9,8 km/h (2 Bft)
05.06.2014 18:00 16,2 C 52 % 1015,2 hPa 0,0 l/m 4,2 km/h (1 Bft) SW 0,93 h 0,178 mm 0,9 UV-I 90 W/m 6,2 C 16,2 C 7,2 km/h (2 Bft)
05.06.2014 19:00 16,1 C 52 % 1015,4 hPa 0,0 l/m 3,5 km/h (1 Bft) S 0,02 h 0,076 mm 0,0 UV-I 34 W/m 6,2 C 16,1 C 5,6 km/h (1 Bft)
05.06.2014 20:00 15,5 C 52 % 1015,6 hPa 0,0 l/m 2,9 km/h (1 Bft) W 0,00 h 0,051 mm 0,0 UV-I 18 W/m 5,7 C 15,5 C 4,9 km/h (1 Bft)
05.06.2014 21:00 13,0 C 66 % 1016,4 hPa 0,0 l/m 0,2 km/h (0 Bft) O 0,00 h 0,025 mm 0,0 UV-I 6 W/m 6,8 C 13,0 C 0,6 km/h (0 Bft)
05.06.2014 22:00 10,7 C 80 % 1017,1 hPa 0,0 l/m 0,1 km/h (0 Bft) O-NO 0,00 h 0,000 mm 0,0 UV-I 0 W/m 7,4 C 10,7 C 0,5 km/h (0 Bft)
05.06.2014 23:00 9,5 C 85 % 1017,5 hPa 0,0 l/m 0,7 km/h (0 Bft) O-NO 0,00 h 0,025 mm 0,0 UV-I 0 W/m 7,0 C 9,5 C 1,8 km/h (1 Bft)
06.06.2014 00:00 8,3 C 88 % 1018,1 hPa 0,0 l/m 0,0 km/h (0 Bft) O 0,00 h 0,000 mm 0,0 UV-I 0 W/m 6,4 C 8,3 C 0,3 km/h (0 Bft)
06.06.2014 01:00 8,2 C 88 % 1018,3 hPa 0,0 l/m 0,0 km/h (0 Bft) N 0,00 h 0,000 mm 0,0 UV-I 0 W/m 6,3 C 8,2 C 0,4 km/h (0 Bft)
06.06.2014 02:00 8,6 C 86 % 1018,6 hPa 0,0 l/m 0,2 km/h (0 Bft) N 0,00 h 0,000 mm 0,0 UV-I 0 W/m 6,4 C 8,6 C 0,8 km/h (0 Bft)
06.06.2014 03:00 8,0 C 89 % 1018,7 hPa 0,0 l/m 0,2 km/h (0 Bft) N 0,00 h 0,000 mm 0,0 UV-I 0 W/m 6,3 C 8,0 C 0,6 km/h (0 Bft)
06.06.2014 04:00 7,6 C 91 % 1018,8 hPa 0,0 l/m 0,5 km/h (0 Bft) N 0,00 h 0,000 mm 0,0 UV-I 0 W/m 6,2 C 7,6 C 1,7 km/h (1 Bft)
06.06.2014 05:00 6,9 C 92 % 1019,0 hPa 0,0 l/m 0,0 km/h (0 Bft) N 0,00 h 0,000 mm 0,0 UV-I 11 W/m 5,7 C 6,9 C 0,0 km/h (0 Bft)
06.06.2014 06:00 7,5 C 92 % 1019,2 hPa 0,0 l/m 0,2 km/h (0 Bft) N 0,00 h 0,000 mm 0,0 UV-I 28 W/m 6,4 C 7,5 C 0,3 km/h (0 Bft)
06.06.2014 07:00 10,4 C 86 % 1019,3 hPa 0,0 l/m 0,6 km/h (0 Bft) N 0,63 h 0,025 mm 0,9 UV-I 183 W/m 8,1 C 10,4 C 1,4 km/h (1 Bft)
06.06.2014 08:00 14,8 C 73 % 1019,2 hPa 0,0 l/m 0,5 km/h (0 Bft) O-SO 1,00 h 0,076 mm 1,9 UV-I 466 W/m 9,9 C 14,8 C 1,4 km/h (1 Bft)
06.06.2014 09:00 17,9 C 62 % 1019,2 hPa 0,0 l/m 1,9 km/h (1 Bft) SO 1,00 h 0,254 mm 3,2 UV-I 615 W/m 10,4 C 17,9 C 4,5 km/h (1 Bft)
06.06.2014 10:00 20,0 C 50 % 1019,0 hPa 0,0 l/m 6,1 km/h (2 Bft) S 1,00 h 0,356 mm 4,8 UV-I 798 W/m 9,3 C 19,7 C 10,1 km/h (2 Bft)
06.06.2014 11:00 20,7 C 47 % 1018,9 hPa 0,0 l/m 7,0 km/h (2 Bft) S 1,00 h 0,483 mm 5,9 UV-I 827 W/m 8,9 C 20,2 C 11,1 km/h (2 Bft)
06.06.2014 12:00 21,5 C 46 % 1018,5 hPa 0,0 l/m 4,7 km/h (1 Bft) S-SO 1,00 h 0,533 mm 6,4 UV-I 843 W/m 9,3 C 21,3 C 8,3 km/h (2 Bft)
06.06.2014 13:00 22,9 C 43 % 1017,9 hPa 0,0 l/m 3,7 km/h (1 Bft) O 1,00 h 0,533 mm 6,7 UV-I 886 W/m 9,7 C 22,8 C 7,3 km/h (2 Bft)
06.06.2014 14:00 23,8 C 39 % 1017,4 hPa 0,0 l/m 4,0 km/h (1 Bft) SO 1,00 h 0,559 mm 6,2 UV-I 798 W/m 9,0 C 23,8 C 7,1 km/h (2 Bft)
06.06.2014 15:00 23,9 C 36 % 1016,9 hPa 0,0 l/m 4,8 km/h (1 Bft) SO 1,00 h 0,533 mm 5,1 UV-I 760 W/m 8,0 C 23,8 C 8,4 km/h (2 Bft)
06.06.2014 16:00 24,6 C 32 % 1016,5 hPa 0,0 l/m 3,7 km/h (1 Bft) N 1,00 h 0,508 mm 3,7 UV-I 643 W/m 6,9 C 24,5 C 6,7 km/h (2 Bft)
06.06.2014 17:00 24,2 C 30 % 1016,3 hPa 0,0 l/m 2,3 km/h (1 Bft) W-NW 1,00 h 0,432 mm 2,3 UV-I 333 W/m 5,3 C 24,2 C 4,5 km/h (1 Bft)
06.06.2014 18:00 23,6 C 29 % 1016,2 hPa 0,0 l/m 4,5 km/h (1 Bft) W-SW 0,02 h 0,229 mm 0,0 UV-I 45 W/m 4,6 C 23,5 C 7,3 km/h (2 Bft)
06.06.2014 19:00 22,9 C 33 % 1016,1 hPa 0,0 l/m 3,0 km/h (1 Bft) S-SO 0,00 h 0,076 mm 0,0 UV-I 27 W/m 5,5 C 22,9 C 5,2 km/h (1 Bft)
06.06.2014 20:00 21,5 C 41 % 1016,1 hPa 0,0 l/m 3,5 km/h (1 Bft) O-SO 0,00 h 0,051 mm 0,0 UV-I 15 W/m 7,7 C 21,5 C 6,0 km/h (2 Bft)
06.06.2014 21:00 19,4 C 49 % 1016,4 hPa 0,0 l/m 1,5 km/h (1 Bft) O 0,00 h 0,051 mm 0,0 UV-I 6 W/m 8,3 C 19,4 C 3,2 km/h (1 Bft)
06.06.2014 22:00 16,6 C 61 % 1016,8 hPa 0,0 l/m 1,3 km/h (1 Bft) O 0,00 h 0,025 mm 0,0 UV-I 0 W/m 8,9 C 16,6 C 3,0 km/h (1 Bft)
06.06.2014 23:00 14,3 C 72 % 1016,9 hPa 0,0 l/m 0,4 km/h (0 Bft) O-NO 0,00 h 0,051 mm 0,0 UV-I 0 W/m 9,4 C 14,3 C 1,0 km/h (0 Bft)
07.06.2014 00:00 13,1 C 76 % 1016,8 hPa 0,0 l/m 0,4 km/h (0 Bft) O-NO 0,00 h 0,025 mm 0,0 UV-I 0 W/m 9,0 C 13,1 C 1,8 km/h (1 Bft)
07.06.2014 01:00 12,2 C 80 % 1016,8 hPa 0,0 l/m 0,1 km/h (0 Bft) O-NO 0,00 h 0,025 mm 0,0 UV-I 0 W/m 8,8 C 12,2 C 0,4 km/h (0 Bft)
07.06.2014 02:00 11,3 C 85 % 1016,8 hPa 0,0 l/m 0,4 km/h (0 Bft) N 0,00 h 0,025 mm 0,0 UV-I 0 W/m 8,8 C 11,3 C 1,5 km/h (1 Bft)
07.06.2014 03:00 10,8 C 88 % 1016,8 hPa 0,0 l/m 0,5 km/h (0 Bft) N 0,00 h 0,000 mm 0,0 UV-I 0 W/m 8,9 C 10,8 C 1,2 km/h (1 Bft)
07.06.2014 04:00 9,4 C 90 % 1017,0 hPa 0,0 l/m 0,0 km/h (0 Bft) N 0,00 h 0,000 mm 0,0 UV-I 0 W/m 7,9 C 9,4 C 0,0 km/h (0 Bft)
07.06.2014 05:00 9,0 C 91 % 1017,4 hPa 0,0 l/m 0,1 km/h (0 Bft) O 0,00 h 0,000 mm 0,0 UV-I 10 W/m 7,6 C 9,0 C 0,2 km/h (0 Bft)
07.06.2014 06:00 9,8 C 89 % 1017,6 hPa 0,0 l/m 0,0 km/h (0 Bft) N 0,00 h 0,000 mm 0,0 UV-I 20 W/m 8,2 C 9,8 C 0,0 km/h (0 Bft)
07.06.2014 07:00 13,2 C 82 % 1017,5 hPa 0,0 l/m 0,0 km/h (0 Bft) N 0,63 h 0,000 mm 1,0 UV-I 215 W/m 10,2 C 13,2 C 0,2 km/h (0 Bft)
07.06.2014 08:00 18,1 C 66 % 1017,5 hPa 0,0 l/m 0,2 km/h (0 Bft) S-SO 1,00 h 0,102 mm 1,9 UV-I 471 W/m 11,6 C 18,1 C 0,7 km/h (0 Bft)
07.06.2014 09:00 21,3 C 52 % 1017,5 hPa 0,0 l/m 1,3 km/h (1 Bft) W-SW 1,00 h 0,254 mm 3,2 UV-I 622 W/m 10,9 C 21,3 C 2,8 km/h (1 Bft)
07.06.2014 10:00 23,4 C 47 % 1017,4 hPa 0,0 l/m 2,0 km/h (1 Bft) W 1,00 h 0,381 mm 4,7 UV-I 744 W/m 11,4 C 23,4 C 4,2 km/h (1 Bft)
07.06.2014 11:00 25,3 C 39 % 1017,2 hPa 0,0 l/m 4,4 km/h (1 Bft) S 1,00 h 0,483 mm 6,0 UV-I 829 W/m 10,3 C 25,3 C 7,7 km/h (2 Bft)
07.06.2014 12:00 26,3 C 36 % 1017,0 hPa 0,0 l/m 5,0 km/h (1 Bft) S 1,00 h 0,559 mm 6,9 UV-I 880 W/m 10,0 C 26,2 C 8,0 km/h (2 Bft)
07.06.2014 13:00 27,3 C 36 % 1016,8 hPa 0,0 l/m 6,5 km/h (2 Bft) S 1,00 h 0,610 mm 7,0 UV-I 881 W/m 10,7 C 27,1 C 10,9 km/h (2 Bft)
07.06.2014 14:00 27,7 C 35 % 1016,4 hPa 0,0 l/m 6,0 km/h (2 Bft) S-SO 1,00 h 0,635 mm 6,4 UV-I 838 W/m 10,6 C 27,6 C 9,7 km/h (2 Bft)
07.06.2014 15:00 28,2 C 32 % 1016,1 hPa 0,0 l/m 6,0 km/h (2 Bft) S-SW 1,00 h 0,610 mm 5,2 UV-I 756 W/m 9,7 C 28,0 C 9,8 km/h (2 Bft)
07.06.2014 16:00 28,1 C 30 % 1016,0 hPa 0,0 l/m 5,8 km/h (2 Bft) S 1,00 h 0,559 mm 3,6 UV-I 617 W/m 9,0 C 28,0 C 9,0 km/h (2 Bft)
07.06.2014 17:00 27,4 C 34 % 1016,0 hPa 0,0 l/m 5,6 km/h (1 Bft) S 1,00 h 0,483 mm 1,9 UV-I 322 W/m 10,3 C 27,4 C 8,9 km/h (2 Bft)
07.06.2014 18:00 26,8 C 35 % 1016,0 hPa 0,0 l/m 4,3 km/h (1 Bft) S 1,00 h 0,279 mm 0,9 UV-I 85 W/m 10,2 C 26,8 C 6,8 km/h (2 Bft)
07.06.2014 19:00 26,4 C 37 % 1016,4 hPa 0,0 l/m 4,8 km/h (1 Bft) S 0,70 h 0,102 mm 0,5 UV-I 57 W/m 10,4 C 26,3 C 6,9 km/h (2 Bft)
07.06.2014 20:00 25,0 C 42 % 1016,5 hPa 0,0 l/m 1,9 km/h (1 Bft) S 0,00 h 0,102 mm 0,0 UV-I 19 W/m 11,2 C 25,0 C 3,3 km/h (1 Bft)
07.06.2014 21:00 21,9 C 55 % 1016,8 hPa 0,0 l/m 2,5 km/h (1 Bft) O 0,00 h 0,051 mm 0,0 UV-I 5 W/m 12,4 C 21,9 C 4,3 km/h (1 Bft)
07.06.2014 22:00 20,2 C 66 % 1017,4 hPa 0,0 l/m 0,3 km/h (0 Bft) O 0,00 h 0,025 mm 0,0 UV-I 0 W/m 13,5 C 20,2 C 1,0 km/h (0 Bft)
07.06.2014 23:00 18,3 C 74 % 1017,8 hPa 0,0 l/m 0,0 km/h (0 Bft) N 0,00 h 0,000 mm 0,0 UV-I 0 W/m 13,6 C 18,3 C 0,0 km/h (0 Bft)
08.06.2014 00:00 16,6 C 80 % 1018,0 hPa 0,0 l/m 0,0 km/h (0 Bft) N 0,00 h 0,025 mm 0,0 UV-I 0 W/m 13,2 C 16,6 C 0,1 km/h (0 Bft)
08.06.2014 01:00 15,4 C 82 % 1018,0 hPa 0,0 l/m 0,0 km/h (0 Bft) N 0,00 h 0,025 mm 0,0 UV-I 0 W/m 12,3 C 15,4 C 0,0 km/h (0 Bft)
08.06.2014 02:00 14,4 C 85 % 1018,2 hPa 0,0 l/m 0,0 km/h (0 Bft) N 0,00 h 0,025 mm 0,0 UV-I 0 W/m 11,9 C 14,4 C 0,0 km/h (0 Bft)
08.06.2014 03:00 13,4 C 89 % 1018,1 hPa 0,0 l/m 0,0 km/h (0 Bft) N 0,00 h 0,000 mm 0,0 UV-I 0 W/m 11,6 C 13,4 C 0,0 km/h (0 Bft)
08.06.2014 04:00 12,8 C 90 % 1018,3 hPa 0,0 l/m 0,0 km/h (0 Bft) N 0,00 h 0,000 mm 0,0 UV-I 0 W/m 11,2 C 12,8 C 0,0 km/h (0 Bft)
08.06.2014 05:00 12,2 C 92 % 1018,7 hPa 0,0 l/m 0,0 km/h (0 Bft) N 0,00 h 0,000 mm 0,0 UV-I 13 W/m 10,9 C 12,2 C 0,0 km/h (0 Bft)
08.06.2014 06:00 13,0 C 88 % 1019,2 hPa 0,0 l/m 0,0 km/h (0 Bft) N 0,00 h 0,000 mm 0,0 UV-I 31 W/m 11,0 C 13,0 C 0,0 km/h (0 Bft)
08.06.2014 07:00 16,3 C 79 % 1019,4 hPa 0,0 l/m 0,0 km/h (0 Bft) N 0,67 h 0,025 mm 1,0 UV-I 208 W/m 12,6 C 16,3 C 0,0 km/h (0 Bft)
08.06.2014 08:00 20,6 C 67 % 1019,6 hPa 0,0 l/m 0,2 km/h (0 Bft) SW 1,00 h 0,127 mm 1,9 UV-I 455 W/m 14,1 C 20,6 C 1,1 km/h (0 Bft)
08.06.2014 09:00 24,1 C 55 % 1019,6 hPa 0,0 l/m 0,9 km/h (0 Bft) SW 1,00 h 0,279 mm 3,1 UV-I 608 W/m 14,3 C 24,1 C 2,5 km/h (1 Bft)
08.06.2014 10:00 26,6 C 43 % 1019,4 hPa 0,0 l/m 4,4 km/h (1 Bft) W-SW 1,00 h 0,381 mm 4,6 UV-I 735 W/m 12,9 C 26,5 C 7,1 km/h (2 Bft)
08.06.2014 11:00 28,2 C 38 % 1019,2 hPa 0,0 l/m 3,5 km/h (1 Bft) S-SO 1,00 h 0,508 mm 5,9 UV-I 824 W/m 12,4 C 28,2 C 6,6 km/h (2 Bft)
08.06.2014 12:00 29,7 C 33 % 1018,9 hPa 0,0 l/m 6,3 km/h (2 Bft) SO 1,00 h 0,584 mm 6,8 UV-I 869 W/m 11,6 C 29,6 C 10,6 km/h (2 Bft)
08.06.2014 13:00 30,6 C 32 % 1018,5 hPa 0,0 l/m 6,3 km/h (2 Bft) SO 1,00 h 0,660 mm 6,9 UV-I 872 W/m 11,8 C 30,5 C 11,1 km/h (2 Bft)
08.06.2014 14:00 31,0 C 31 % 1018,4 hPa 0,0 l/m 6,6 km/h (2 Bft) SO 1,00 h 0,660 mm 6,3 UV-I 828 W/m 12,0 C 31,0 C 11,3 km/h (2 Bft)
08.06.2014 15:00 31,2 C 30 % 1018,3 hPa 0,0 l/m 6,0 km/h (2 Bft) W-SW 1,00 h 0,635 mm 5,1 UV-I 742 W/m 11,3 C 31,2 C 9,8 km/h (2 Bft)
08.06.2014 16:00 31,0 C 30 % 1018,0 hPa 0,0 l/m 6,1 km/h (2 Bft) S-SW 1,00 h 0,584 mm 3,6 UV-I 612 W/m 11,3 C 31,0 C 9,8 km/h (2 Bft)
08.06.2014 17:00 30,7 C 30 % 1017,9 hPa 0,0 l/m 5,0 km/h (1 Bft) S 1,00 h 0,508 mm 2,0 UV-I 341 W/m 10,9 C 30,7 C 8,1 km/h (2 Bft)
08.06.2014 18:00 29,9 C 29 % 1017,6 hPa 0,0 l/m 5,5 km/h (1 Bft) S-SW 0,95 h 0,305 mm 0,9 UV-I 64 W/m 9,9 C 29,8 C 8,1 km/h (2 Bft)
08.06.2014 19:00 29,2 C 31 % 1017,5 hPa 0,0 l/m 2,7 km/h (1 Bft) S 0,00 h 0,127 mm 0,0 UV-I 38 W/m 10,4 C 29,2 C 4,8 km/h (1 Bft)
08.06.2014 20:00 27,5 C 40 % 1017,5 hPa 0,0 l/m 1,0 km/h (0 Bft) S 0,00 h 0,076 mm 0,0 UV-I 19 W/m 12,4 C 27,5 C 1,9 km/h (1 Bft)
08.06.2014 21:00 23,5 C 57 % 1017,9 hPa 0,0 l/m 1,5 km/h (1 Bft) O 0,00 h 0,025 mm 0,0 UV-I 6 W/m 14,5 C 23,5 C 2,8 km/h (1 Bft)
08.06.2014 22:00 20,8 C 69 % 1018,3 hPa 0,0 l/m 0,7 km/h (0 Bft) O 0,00 h 0,025 mm 0,0 UV-I 0 W/m 14,8 C 20,8 C 1,3 km/h (1 Bft)
08.06.2014 23:00 19,1 C 73 % 1018,3 hPa 0,0 l/m 0,5 km/h (0 Bft) O 0,00 h 0,025 mm 0,0 UV-I 0 W/m 14,1 C 19,1 C 1,3 km/h (1 Bft)
Min-Datum _ 07.06.14 06.06.14 04.06.14 - 02.06.14 - - - - - 06.06.14 02.06.14 02.06.14
_ Min-Zeit 14:45 16:55 18:27 - 00:00 - - - - - 18:42 04:01 00:00
Minimum _ 0,0 C 27 % 1006,4 hPa - 0,0 km/h (0 Bft) - - - - - 3,3 C 5,1 C 0,0 km/h (0 Bft)
Max-Datum _ 08.06.14 02.06.14 08.06.14 02.06.14 04.06.14 - 03.06.14 08.06.14 06.06.14 03.06.14 08.06.14 08.06.14 04.06.14
_ Max-Zeit 15:19 04:03 08:57 00:00 21:31 - 14:52 13:00 13:50 12:08 09:48 15:35 21:31
Maximum _ 31,5 C 95 % 1019,7 hPa 0,0 l/m 22,5 km/h
W-SW (4 Bft)
- 0,08 h 0,660 mm 7,5 UV-I 1086 W/m 15,6 C 31,5 C 35,4 km/h
SO (5 Bft)
Durchschnitt _ 16,7 C 63 % 1015,4 hPa #0,0 l/m 3,4 km/h (1 Bft) W-SW #84:59 h #30,195 mm 3,3 UV-I 364 W/m 8,6 C 16,4 C 5,7 km/h (1 Bft)